Time;durP1;ratioP1;P1;durP2;ratioP2;P2;SDS_P1;SDS_P2;PMS_P1;PMS_P2;Temp;Humidity;BMP_temperature;BMP_pressure;BME280_temperature;BME280_humidity;BME280_pressure;Samples;Min_cycle;Max_cycle;Signal;HPM_P1;HPM_P2
2021/06/23 00:00:05;;;;;;;16.27;15.07;;;17.30;84.40;;;;;;5160615;28;20042;-73
2021/06/23 00:02:42;;;;;;;16.00;14.63;;;17.40;85.20;;;;;;5161114;28;20432;-73
2021/06/23 00:05:15;;;;;;;15.80;14.45;;;17.30;84.50;;;;;;5160516;28;20452;-73
2021/06/23 00:07:47;;;;;;;15.43;14.32;;;17.30;85.00;;;;;;5158122;28;21038;-74
2021/06/23 00:10:20;;;;;;;15.73;14.40;;;17.30;84.90;;;;;;5159619;28;20050;-74
2021/06/23 00:12:54;;;;;;;15.77;14.50;;;17.30;85.50;;;;;;5142292;28;21749;-73
2021/06/23 00:15:26;;;;;;;15.82;14.60;;;17.30;84.80;;;;;;5157459;28;20207;-74
2021/06/23 00:17:58;;;;;;;15.70;14.60;;;17.30;85.50;;;;;;5155696;28;20119;-74
2021/06/23 00:20:30;;;;;;;16.15;14.95;;;17.20;85.50;;;;;;5159763;28;20508;-74
2021/06/23 00:23:03;;;;;;;16.45;15.07;;;17.20;85.80;;;;;;5159899;28;20046;-75
2021/06/23 00:25:35;;;;;;;16.15;14.95;;;17.20;86.30;;;;;;5160078;28;20100;-74
2021/06/23 00:28:07;;;;;;;16.33;14.85;;;17.10;85.80;;;;;;5161729;28;20881;-74
2021/06/23 00:30:38;;;;;;;16.08;14.65;;;17.20;85.10;;;;;;5161346;28;20054;-73
2021/06/23 00:33:16;;;;;;;16.17;14.82;;;17.20;85.50;;;;;;5161791;28;20141;-73
2021/06/23 00:35:49;;;;;;;16.13;14.77;;;17.20;85.30;;;;;;5163489;28;21164;-72
2021/06/23 00:38:21;;;;;;;16.15;14.85;;;17.20;85.90;;;;;;5163924;28;20069;-74
2021/06/23 00:40:53;;;;;;;14.93;13.82;;;17.20;85.60;;;;;;5161049;28;20042;-73
2021/06/23 00:43:25;;;;;;;15.60;14.30;;;17.20;85.20;;;;;;5163859;28;20153;-73
2021/06/23 00:45:58;;;;;;;15.70;14.52;;;17.20;85.50;;;;;;5162043;28;20860;-72
2021/06/23 00:48:30;;;;;;;15.40;14.20;;;17.20;85.90;;;;;;5147210;28;20397;-71
2021/06/23 00:51:10;;;;;;;15.00;13.90;;;17.30;84.90;;;;;;5163634;28;20049;-73
2021/06/23 00:54:20;;;;;;;15.65;14.30;;;17.20;84.90;;;;;;5097895;29;20059;-72
2021/06/23 00:56:52;;;;;;;15.93;14.52;;;17.20;85.50;;;;;;5095264;29;20145;-73
2021/06/23 00:59:26;;;;;;;16.70;15.30;;;17.20;86.40;;;;;;5140785;28;20125;-72
2021/06/23 01:01:59;;;;;;;16.60;15.30;;;17.00;86.70;;;;;;5161980;28;20121;-72
2021/06/23 01:04:32;;;;;;;16.85;15.55;;;16.90;86.80;;;;;;5161640;28;20043;-73
2021/06/23 01:07:05;;;;;;;16.33;15.13;;;16.80;87.10;;;;;;5161249;28;20062;-72
2021/06/23 01:09:37;;;;;;;16.00;14.70;;;16.70;87.50;;;;;;5160170;28;20039;-72
2021/06/23 01:12:16;;;;;;;15.82;14.63;;;16.70;86.90;;;;;;5160943;28;20424;-72
2021/06/23 01:14:53;;;;;;;16.00;14.80;;;16.80;86.60;;;;;;5145214;28;20385;-73
2021/06/23 01:17:29;;;;;;;15.85;14.65;;;16.80;87.30;;;;;;5145189;28;20487;-73
2021/06/23 01:20:10;;;;;;;15.57;14.07;;;16.80;86.50;;;;;;5161567;28;20096;-73
2021/06/23 01:22:43;;;;;;;15.85;14.68;;;16.90;86.20;;;;;;5162107;28;20152;-74
2021/06/23 01:25:16;;;;;;;15.85;14.65;;;16.90;86.30;;;;;;5162658;28;20184;-74
2021/06/23 01:27:48;;;;;;;16.58;15.18;;;16.90;87.40;;;;;;5161097;28;20050;-74
2021/06/23 01:30:21;;;;;;;16.27;15.00;;;16.80;87.20;;;;;;5159717;28;20053;-75
2021/06/23 01:33:04;;;;;;;16.48;15.18;;;16.80;86.60;;;;;;5160720;28;20192;-76
2021/06/23 01:35:36;;;;;;;15.35;14.25;;;16.90;86.00;;;;;;5160778;28;20047;-74
2021/06/23 01:38:09;;;;;;;16.55;15.35;;;16.90;85.70;;;;;;5160949;28;20049;-74
2021/06/23 01:40:42;;;;;;;16.73;15.52;;;16.90;85.80;;;;;;5145305;28;20054;-74
2021/06/23 01:43:14;;;;;;;16.88;15.57;;;16.90;86.20;;;;;;5161806;28;20042;-75
2021/06/23 01:45:47;;;;;;;17.13;15.82;;;17.00;86.20;;;;;;5161559;28;20081;-75
2021/06/23 01:48:23;;;;;;;16.80;15.50;;;17.00;85.70;;;;;;5169777;28;20050;-75
2021/06/23 01:50:58;;;;;;;16.67;15.40;;;17.00;85.10;;;;;;5158723;28;20046;-75
2021/06/23 01:53:37;;;;;;;16.73;15.43;;;17.00;85.30;;;;;;5165154;28;20046;-74
2021/06/23 01:56:09;;;;;;;16.60;15.40;;;17.00;86.20;;;;;;5160601;28;20056;-74
2021/06/23 01:58:43;;;;;;;16.17;14.98;;;17.00;85.00;;;;;;5146197;28;20050;-73
2021/06/23 02:02:03;;;;;;;16.75;15.43;;;17.00;85.80;;;;;;5175276;28;20042;-75
2021/06/23 02:05:11;;;;;;;16.20;14.90;;;17.00;84.80;;;;;;5159582;28;20049;-73
2021/06/23 02:08:34;;;;;;;16.38;15.00;;;17.00;84.90;;;;;;5160455;28;20552;-72
2021/06/23 02:11:35;;;;;;;16.27;15.00;;;17.00;85.00;;;;;;5119720;28;20514;-72
2021/06/23 02:14:29;;;;;;;16.40;15.20;;;17.00;85.10;;;;;;5175031;28;20046;-75
2021/06/23 02:17:09;;;;;;;15.98;14.70;;;17.00;84.70;;;;;;5159132;28;20046;-72
2021/06/23 02:19:49;;;;;;;15.85;14.65;;;17.00;84.70;;;;;;5157449;28;21729;-73
2021/06/23 02:22:34;;;;;;;16.50;15.10;;;17.10;85.10;;;;;;5151889;28;20098;-74
2021/06/23 02:25:14;;;;;;;16.38;15.18;;;17.10;85.70;;;;;;5159567;28;20045;-73
2021/06/23 02:27:56;;;;;;;16.77;15.30;;;17.00;85.90;;;;;;5144010;28;20603;-72
2021/06/23 02:30:28;;;;;;;16.15;14.95;;;17.00;84.80;;;;;;5177358;28;20039;-72
2021/06/23 02:33:06;;;;;;;16.10;14.90;;;17.00;85.20;;;;;;5164161;28;20096;-73
2021/06/23 02:35:42;;;;;;;16.45;15.05;;;17.00;85.30;;;;;;5158317;28;20435;-72
2021/06/23 02:38:26;;;;;;;16.60;15.32;;;17.00;85.30;;;;;;5149141;28;20049;-72
2021/06/23 02:41:02;;;;;;;16.60;15.32;;;17.10;85.90;;;;;;5131232;28;20531;-72
2021/06/23 02:43:37;;;;;;;16.90;15.60;;;17.10;85.50;;;;;;5159167;28;20204;-72
2021/06/23 02:46:27;;;;;;;16.92;15.45;;;17.10;86.50;;;;;;5158735;28;20529;-73
2021/06/23 02:49:08;;;;;;;16.15;14.80;;;17.00;86.10;;;;;;5151381;28;20083;-72
2021/06/23 02:51:47;;;;;;;16.17;14.88;;;17.00;85.60;;;;;;5157632;28;20046;-73
2021/06/23 02:54:20;;;;;;;16.17;14.88;;;17.00;85.90;;;;;;5164031;28;20099;-73
2021/06/23 02:57:10;;;;;;;16.10;14.90;;;17.00;85.60;;;;;;5150222;28;20101;-72
2021/06/23 02:59:47;;;;;;;16.08;14.95;;;17.00;86.40;;;;;;5159495;28;20125;-74
2021/06/23 03:02:19;;;;;;;15.80;14.60;;;17.00;86.40;;;;;;5159012;28;20448;-72
2021/06/23 03:04:52;;;;;;;15.63;14.50;;;16.90;86.50;;;;;;5160456;28;20046;-72
2021/06/23 03:07:28;;;;;;;16.00;14.80;;;16.90;85.90;;;;;;5162768;28;20125;-72
2021/06/23 03:10:08;;;;;;;15.70;14.50;;;16.90;86.00;;;;;;5160865;28;20053;-73
2021/06/23 03:13:06;;;;;;;16.30;14.98;;;16.90;85.40;;;;;;5136833;28;20047;-72
2021/06/23 03:15:59;;;;;;;16.50;14.75;;;16.90;85.20;;;;;;5157649;28;20145;-72
2021/06/23 03:18:39;;;;;;;16.60;15.40;;;16.80;85.50;;;;;;5128622;28;20046;-72
2021/06/23 03:21:11;;;;;;;16.50;15.20;;;16.80;85.50;;;;;;5156948;28;20071;-72
2021/06/23 03:23:49;;;;;;;17.00;15.60;;;16.90;85.30;;;;;;5151780;28;20097;-73
2021/06/23 03:26:28;;;;;;;16.98;15.68;;;16.80;86.30;;;;;;5160343;28;20527;-72
2021/06/23 03:29:25;;;;;;;15.75;14.65;;;16.70;87.00;;;;;;5159320;28;20478;-73
2021/06/23 03:31:58;;;;;;;16.10;14.90;;;16.60;86.50;;;;;;5160007;28;20074;-72
2021/06/23 03:34:34;;;;;;;16.40;15.20;;;16.60;86.60;;;;;;5160403;28;20041;-72
2021/06/23 03:37:07;;;;;;;16.13;14.90;;;16.70;86.40;;;;;;5145866;28;20516;-69
2021/06/23 03:39:45;;;;;;;15.93;14.70;;;16.50;85.90;;;;;;5159183;28;20042;-70
2021/06/23 03:42:19;;;;;;;16.27;14.98;;;16.60;85.50;;;;;;5143722;28;20122;-69
2021/06/23 03:44:54;;;;;;;16.05;14.75;;;16.60;85.20;;;;;;5157106;28;20096;-70
2021/06/23 03:47:26;;;;;;;15.77;14.68;;;16.50;84.90;;;;;;5174011;28;20069;-69
2021/06/23 03:49:58;;;;;;;15.52;14.23;;;16.60;84.80;;;;;;5160524;28;20049;-69
2021/06/23 03:52:31;;;;;;;15.45;14.30;;;16.60;84.70;;;;;;5155965;28;20059;-71
2021/06/23 03:55:06;;;;;;;15.75;14.35;;;16.60;84.90;;;;;;5157791;28;20066;-71
2021/06/23 03:57:41;;;;;;;15.43;14.00;;;16.60;85.40;;;;;;5159328;28;20070;-69
2021/06/23 04:00:14;;;;;;;15.48;14.27;;;16.60;85.80;;;;;;5156209;28;20030;-69
2021/06/23 04:02:50;;;;;;;16.42;15.02;;;16.60;86.40;;;;;;5161547;28;20049;-71
2021/06/23 04:05:42;;;;;;;15.68;14.40;;;16.60;86.10;;;;;;5162172;28;20038;-71
2021/06/23 04:08:16;;;;;;;15.43;14.23;;;16.50;85.30;;;;;;5161702;28;20065;-71
2021/06/23 04:10:49;;;;;;;15.50;14.20;;;16.50;85.80;;;;;;5163163;28;20057;-71
2021/06/23 04:13:21;;;;;;;15.60;14.27;;;16.50;85.80;;;;;;5163331;28;20053;-71
2021/06/23 04:15:53;;;;;;;15.90;14.60;;;16.50;85.20;;;;;;5152618;28;20042;-70
2021/06/23 04:18:27;;;;;;;15.18;14.07;;;16.60;86.00;;;;;;5163015;28;20038;-71
2021/06/23 04:20:59;;;;;;;15.38;14.07;;;16.50;86.00;;;;;;5161822;28;20524;-70
2021/06/23 04:23:32;;;;;;;15.77;14.45;;;16.50;85.30;;;;;;5163357;28;20038;-71
2021/06/23 04:26:04;;;;;;;15.45;14.15;;;16.50;86.10;;;;;;5162190;28;20066;-71
2021/06/23 04:28:37;;;;;;;15.57;14.38;;;16.50;86.00;;;;;;5164902;28;20050;-71
2021/06/23 04:31:09;;;;;;;15.40;14.18;;;16.50;86.30;;;;;;5161412;28;20052;-71
2021/06/23 04:33:41;;;;;;;15.45;14.35;;;16.60;86.30;;;;;;5167705;28;20506;-71
2021/06/23 04:36:16;;;;;;;15.18;14.07;;;16.60;85.60;;;;;;5161282;28;20061;-71
2021/06/23 04:38:48;;;;;;;15.40;14.20;;;16.70;85.30;;;;;;5162316;28;20046;-71
2021/06/23 04:41:21;;;;;;;15.40;14.20;;;16.70;84.90;;;;;;5163204;28;20046;-71
2021/06/23 04:43:53;;;;;;;15.27;14.18;;;16.70;85.20;;;;;;5160029;28;20050;-71
2021/06/23 04:46:25;;;;;;;15.32;13.95;;;16.70;85.20;;;;;;5158132;28;20046;-72
2021/06/23 04:48:57;;;;;;;15.55;14.35;;;16.80;85.30;;;;;;5163613;28;20041;-71
2021/06/23 04:51:49;;;;;;;15.98;14.50;;;16.80;84.40;;;;;;5161543;28;20128;-71
2021/06/23 04:54:21;;;;;;;14.98;13.77;;;16.80;84.40;;;;;;5160832;28;20045;-70
2021/06/23 04:56:53;;;;;;;15.20;13.90;;;16.80;85.00;;;;;;5143692;28;20096;-71
2021/06/23 04:59:25;;;;;;;15.07;13.98;;;16.80;85.60;;;;;;5159463;28;20771;-72
2021/06/23 05:01:57;;;;;;;15.27;14.00;;;16.80;85.40;;;;;;5160849;28;20516;-72
2021/06/23 05:04:29;;;;;;;15.35;14.25;;;16.80;85.30;;;;;;5160373;28;20623;-72
2021/06/23 05:07:07;;;;;;;15.15;14.02;;;16.80;85.20;;;;;;5160097;28;20046;-72
2021/06/23 05:09:39;;;;;;;14.85;13.75;;;16.80;85.30;;;;;;5160561;28;20046;-71
2021/06/23 05:12:11;;;;;;;15.90;14.50;;;16.80;85.40;;;;;;5151620;28;20058;-72
2021/06/23 05:14:43;;;;;;;15.30;14.10;;;16.80;85.20;;;;;;5159695;28;20042;-74
2021/06/23 05:17:16;;;;;;;15.70;14.38;;;16.90;85.30;;;;;;5160714;28;20041;-74
2021/06/23 05:19:48;;;;;;;15.32;14.13;;;16.90;86.20;;;;;;5161409;28;20051;-75
2021/06/23 05:22:20;;;;;;;15.77;14.48;;;16.90;85.10;;;;;;5161375;28;20419;-74
2021/06/23 05:24:52;;;;;;;15.45;14.25;;;17.00;84.60;;;;;;5158064;28;20054;-74
2021/06/23 05:27:24;;;;;;;15.70;14.50;;;17.10;85.20;;;;;;5159145;28;20116;-72
2021/06/23 05:30:03;;;;;;;16.30;15.10;;;17.10;84.80;;;;;;5157243;28;20487;-73
2021/06/23 05:32:36;;;;;;;16.10;14.88;;;17.00;84.40;;;;;;5161293;28;20555;-72
2021/06/23 05:35:08;;;;;;;16.23;14.93;;;17.00;84.90;;;;;;5157522;28;20958;-74
2021/06/23 05:37:40;;;;;;;15.75;14.55;;;17.00;84.60;;;;;;5150066;28;20105;-73
2021/06/23 05:40:13;;;;;;;16.40;15.10;;;17.10;84.90;;;;;;5164097;28;20088;-73
2021/06/23 05:42:45;;;;;;;16.05;14.85;;;17.10;84.80;;;;;;5161822;28;20069;-73
2021/06/23 05:45:17;;;;;;;17.05;15.77;;;17.10;84.80;;;;;;5162356;28;20159;-72
2021/06/23 05:47:48;;;;;;;16.17;15.05;;;17.20;85.00;;;;;;5161732;28;20065;-73
2021/06/23 05:50:20;;;;;;;16.02;14.70;;;17.20;85.00;;;;;;5164907;28;20046;-74
2021/06/23 05:52:53;;;;;;;16.35;15.05;;;17.30;85.00;;;;;;5163821;28;20050;-73
2021/06/23 05:55:26;;;;;;;17.30;16.00;;;17.40;84.90;;;;;;5164165;28;20053;-73
2021/06/23 05:57:58;;;;;;;16.50;15.30;;;17.50;84.70;;;;;;5113234;28;20050;-73
2021/06/23 06:00:31;;;;;;;16.35;15.15;;;17.50;84.90;;;;;;5161174;28;20100;-74
2021/06/23 06:03:04;;;;;;;16.70;15.40;;;17.50;84.90;;;;;;5161844;28;20726;-72
2021/06/23 06:05:36;;;;;;;16.83;15.63;;;17.50;85.30;;;;;;5167730;28;20653;-73
2021/06/23 06:08:08;;;;;;;16.73;15.43;;;17.50;85.10;;;;;;5157366;28;20504;-73
2021/06/23 06:10:40;;;;;;;17.40;15.88;;;17.70;85.00;;;;;;5159742;28;20053;-73
2021/06/23 06:13:12;;;;;;;17.23;15.85;;;17.70;84.90;;;;;;5154655;28;20245;-73
2021/06/23 06:15:44;;;;;;;16.25;15.05;;;17.80;85.00;;;;;;5157248;28;20152;-73
2021/06/23 06:18:16;;;;;;;16.52;15.27;;;17.90;84.90;;;;;;5158096;28;20042;-73
2021/06/23 06:20:48;;;;;;;16.75;15.45;;;18.00;84.40;;;;;;5158383;28;20042;-73
2021/06/23 06:23:21;;;;;;;16.67;15.48;;;18.10;83.30;;;;;;5159935;28;20054;-73
2021/06/23 06:25:53;;;;;;;16.13;14.93;;;18.10;83.50;;;;;;5160385;28;20076;-73
2021/06/23 06:28:26;;;;;;;16.85;15.65;;;18.30;83.30;;;;;;5160255;28;20042;-73
2021/06/23 06:30:58;;;;;;;16.48;15.27;;;18.40;83.00;;;;;;5158186;28;20053;-73
2021/06/23 06:33:30;;;;;;;16.58;15.27;;;18.60;82.10;;;;;;5158784;28;20039;-74
2021/06/23 06:36:03;;;;;;;16.35;15.05;;;18.60;81.20;;;;;;5162272;28;20038;-74
2021/06/23 06:38:35;;;;;;;16.17;14.98;;;18.70;80.40;;;;;;5164450;28;20042;-74
2021/06/23 06:41:07;;;;;;;16.20;15.00;;;18.80;81.20;;;;;;5160568;28;20085;-73
2021/06/23 06:43:39;;;;;;;16.55;15.27;;;18.90;81.20;;;;;;5145478;28;20119;-73
2021/06/23 06:46:11;;;;;;;16.63;15.32;;;18.90;80.60;;;;;;5161159;28;20048;-74
2021/06/23 06:48:43;;;;;;;16.35;15.13;;;19.00;81.30;;;;;;5162604;28;20046;-74
2021/06/23 06:51:15;;;;;;;16.63;15.40;;;19.10;79.50;;;;;;5161841;28;20136;-72
2021/06/23 06:53:47;;;;;;;16.77;15.48;;;19.00;79.60;;;;;;5159612;28;20042;-73
2021/06/23 06:56:19;;;;;;;16.25;15.05;;;18.90;80.10;;;;;;5160253;28;20070;-74
2021/06/23 06:58:50;;;;;;;16.90;15.70;;;19.00;80.90;;;;;;5162077;28;20638;-74
2021/06/23 07:01:23;;;;;;;16.95;15.65;;;19.20;81.70;;;;;;5161935;28;20060;-73
2021/06/23 07:03:55;;;;;;;17.20;15.95;;;19.40;81.30;;;;;;5162100;28;20042;-73
2021/06/23 07:06:27;;;;;;;16.58;15.38;;;19.60;80.80;;;;;;5163633;28;20423;-73
2021/06/23 07:08:59;;;;;;;17.23;15.85;;;19.80;81.00;;;;;;5147443;28;20401;-74
2021/06/23 07:11:31;;;;;;;17.13;15.82;;;20.00;80.90;;;;;;5158602;28;20046;-74
2021/06/23 07:14:03;;;;;;;17.33;16.13;;;20.10;80.50;;;;;;5161736;28;20104;-75
2021/06/23 07:16:36;;;;;;;17.13;15.93;;;20.20;79.70;;;;;;5159890;28;20092;-74
2021/06/23 07:19:08;;;;;;;17.60;16.30;;;20.40;78.40;;;;;;5157185;28;20069;-74
2021/06/23 07:21:41;;;;;;;17.42;16.13;;;20.30;77.40;;;;;;5158984;28;20069;-74
2021/06/23 07:24:19;;;;;;;17.45;16.15;;;20.40;77.40;;;;;;5158668;28;20514;-74
2021/06/23 07:26:58;;;;;;;17.90;16.55;;;20.50;77.00;;;;;;5163946;28;20078;-74
2021/06/23 07:29:30;;;;;;;18.30;17.00;;;20.60;76.00;;;;;;5161753;28;20520;-73
2021/06/23 07:32:06;;;;;;;17.83;16.55;;;20.80;75.90;;;;;;5144856;28;20508;-73
2021/06/23 07:37:17;;;;;;;18.30;16.90;;;21.00;75.10;;;;;;5160335;28;20448;-73
2021/06/23 07:39:49;;;;;;;16.60;15.40;;;21.10;75.40;;;;;;5163003;28;20043;-74
2021/06/23 07:42:21;;;;;;;17.73;16.42;;;21.20;75.70;;;;;;5165472;28;20057;-73
2021/06/23 07:44:57;;;;;;;17.27;16.08;;;21.40;75.40;;;;;;5163173;28;20835;-73
2021/06/23 07:47:34;;;;;;;17.63;16.33;;;21.50;75.60;;;;;;5163673;28;20046;-73
2021/06/23 07:50:09;;;;;;;17.50;16.20;;;21.70;72.10;;;;;;5163519;28;20053;-74
2021/06/23 07:52:51;;;;;;;17.50;16.20;;;21.70;74.80;;;;;;5167153;28;20104;-74
2021/06/23 08:01:40;;;;;;;17.90;16.60;;;22.00;73.10;;;;;;5164330;28;20050;-73
2021/06/23 08:09:41;;;;;;;17.55;16.35;;;22.40;70.90;;;;;;5163443;28;20042;-74
2021/06/23 08:12:24;;;;;;;17.88;16.52;;;22.40;71.30;;;;;;5166709;28;20637;-74
2021/06/23 08:14:56;;;;;;;17.70;16.30;;;22.50;70.80;;;;;;5164781;28;20395;-74
2021/06/23 08:17:28;;;;;;;17.65;16.33;;;22.50;70.40;;;;;;5164585;28;20100;-74
2021/06/23 08:20:00;;;;;;;18.70;17.30;;;22.60;71.00;;;;;;5162574;28;20096;-74
2021/06/23 08:22:35;;;;;;;18.23;16.83;;;22.70;72.00;;;;;;5162942;28;20042;-74
2021/06/23 08:25:07;;;;;;;18.20;16.85;;;22.80;71.60;;;;;;5167856;28;20150;-73
2021/06/23 08:27:43;;;;;;;18.65;17.25;;;22.80;70.30;;;;;;5163571;28;20042;-74
2021/06/23 08:30:15;;;;;;;17.95;16.65;;;22.80;69.40;;;;;;5161467;28;20124;-74
2021/06/23 08:32:48;;;;;;;17.48;16.27;;;22.80;70.50;;;;;;5165318;28;20050;-75
2021/06/23 08:35:20;;;;;;;18.38;17.08;;;22.80;70.90;;;;;;5168022;28;20042;-74
2021/06/23 08:37:52;;;;;;;18.45;17.10;;;22.80;71.30;;;;;;5164009;28;20056;-74
2021/06/23 08:40:24;;;;;;;18.75;17.20;;;22.80;70.50;;;;;;5163710;28;20054;-73
2021/06/23 08:42:56;;;;;;;18.38;17.08;;;22.90;71.20;;;;;;5164676;28;20030;-74
2021/06/23 08:45:28;;;;;;;19.02;17.63;;;23.00;70.40;;;;;;5160250;28;20531;-73
2021/06/23 08:48:02;;;;;;;19.02;17.63;;;23.10;71.20;;;;;;5165791;28;20046;-74
2021/06/23 08:50:34;;;;;;;19.65;18.15;;;22.90;71.20;;;;;;5163839;28;20062;-75
2021/06/23 08:53:07;;;;;;;18.92;17.42;;;22.80;71.80;;;;;;5162364;28;20054;-74
2021/06/23 08:55:40;;;;;;;19.05;17.55;;;23.00;71.40;;;;;;5163475;28;20132;-74
2021/06/23 08:58:12;;;;;;;18.10;16.73;;;23.10;72.50;;;;;;5162494;28;20214;-74
2021/06/23 09:00:44;;;;;;;18.08;16.77;;;23.20;71.10;;;;;;5147573;28;20516;-74
2021/06/23 09:03:16;;;;;;;18.42;17.00;;;23.30;71.40;;;;;;5162780;28;20065;-76
2021/06/23 09:05:54;;;;;;;18.55;17.15;;;23.40;71.20;;;;;;5161387;28;20053;-75
2021/06/23 09:08:33;;;;;;;18.42;17.13;;;23.60;70.80;;;;;;5160833;28;20038;-74
2021/06/23 09:11:20;;;;;;;19.05;17.65;;;23.50;69.60;;;;;;5178572;28;20109;-75
2021/06/23 09:13:52;;;;;;;18.58;17.02;;;23.50;69.20;;;;;;5165996;28;20690;-74
2021/06/23 09:16:24;;;;;;;18.73;17.35;;;23.50;69.60;;;;;;5163862;28;20051;-74
2021/06/23 09:18:56;;;;;;;18.45;17.05;;;23.60;69.60;;;;;;5165595;28;20050;-75
2021/06/23 09:21:28;;;;;;;18.52;17.02;;;23.70;70.40;;;;;;5158239;28;20053;-74
2021/06/23 09:24:01;;;;;;;18.35;16.95;;;23.70;69.60;;;;;;5163932;28;20074;-74
2021/06/23 09:26:36;;;;;;;17.63;16.42;;;23.70;67.90;;;;;;5160589;28;20125;-76
2021/06/23 09:29:14;;;;;;;18.00;16.70;;;23.70;68.70;;;;;;5161752;28;20042;-74
2021/06/23 09:32:05;;;;;;;18.13;16.73;;;23.70;69.40;;;;;;5161816;28;20081;-75
2021/06/23 09:34:42;;;;;;;17.77;16.48;;;23.80;67.90;;;;;;5163434;28;20775;-75
2021/06/23 09:37:29;;;;;;;18.00;16.60;;;23.70;68.30;;;;;;5160871;28;20054;-75
2021/06/23 09:40:15;;;;;;;17.88;16.58;;;23.90;69.40;;;;;;5164216;28;20112;-75
2021/06/23 09:43:00;;;;;;;18.88;17.48;;;24.00;69.70;;;;;;5165074;28;20076;-75
2021/06/23 09:45:32;;;;;;;17.67;16.38;;;24.00;66.20;;;;;;5164004;28;20530;-75
2021/06/23 09:48:06;;;;;;;17.92;16.63;;;24.00;67.40;;;;;;5145842;28;20078;-75
2021/06/23 09:50:38;;;;;;;17.70;16.40;;;24.10;67.70;;;;;;5162011;28;20047;-76
2021/06/23 09:53:17;;;;;;;18.40;17.10;;;24.30;67.70;;;;;;5161881;28;20097;-77
2021/06/23 09:55:50;;;;;;;18.00;16.70;;;24.40;67.50;;;;;;5159705;28;20492;-75
2021/06/23 09:58:26;;;;;;;18.25;16.90;;;24.40;66.70;;;;;;5161939;28;20046;-75
2021/06/23 10:01:02;;;;;;;18.77;17.27;;;24.40;67.00;;;;;;5160221;28;20046;-75
2021/06/23 10:03:55;;;;;;;18.95;17.45;;;24.40;67.30;;;;;;5163362;28;20129;-75
2021/06/23 10:06:29;;;;;;;18.02;16.73;;;24.40;66.40;;;;;;5160943;28;20046;-74
2021/06/23 10:09:24;;;;;;;18.55;16.92;;;24.50;66.80;;;;;;5161161;28;20852;-74
2021/06/23 10:11:57;;;;;;;18.50;17.20;;;24.60;66.90;;;;;;5162002;28;20046;-74
2021/06/23 10:14:33;;;;;;;18.13;16.77;;;24.60;65.90;;;;;;5160532;28;20104;-74
2021/06/23 10:17:06;;;;;;;18.30;16.95;;;24.70;66.20;;;;;;5160904;28;20043;-74
2021/06/23 10:19:39;;;;;;;18.52;17.02;;;24.70;65.00;;;;;;5162213;28;20046;-74
2021/06/23 10:22:16;;;;;;;18.15;16.85;;;24.70;66.90;;;;;;5163249;28;20042;-74
2021/06/23 10:25:05;;;;;;;18.40;17.00;;;24.80;65.20;;;;;;5163825;28;20042;-73
2021/06/23 10:27:43;;;;;;;18.63;17.20;;;24.70;64.60;;;;;;5157371;28;20579;-73
2021/06/23 10:30:15;;;;;;;18.23;16.83;;;24.70;64.20;;;;;;5157850;28;20993;-72
2021/06/23 10:32:47;;;;;;;18.98;17.52;;;24.70;64.30;;;;;;5160948;28;20054;-72
2021/06/23 10:35:19;;;;;;;18.38;17.08;;;24.70;63.40;;;;;;5159720;28;20046;-73
2021/06/23 10:37:53;;;;;;;17.80;16.50;;;24.60;63.80;;;;;;5158932;28;20042;-72
2021/06/23 10:40:27;;;;;;;17.90;16.50;;;24.60;63.00;;;;;;5159152;28;20574;-72
2021/06/23 10:43:22;;;;;;;17.67;16.35;;;24.60;64.00;;;;;;5157493;28;20053;-72
2021/06/23 10:45:54;;;;;;;18.10;16.70;;;24.70;64.30;;;;;;5156660;28;20740;-72
2021/06/23 10:48:26;;;;;;;17.95;16.52;;;24.70;64.40;;;;;;5159908;28;20478;-73
2021/06/23 10:50:58;;;;;;;18.08;16.77;;;24.80;64.20;;;;;;5157768;28;20073;-73
2021/06/23 10:53:34;;;;;;;18.13;16.77;;;24.90;64.60;;;;;;5157871;28;20837;-73
2021/06/23 10:56:06;;;;;;;18.02;16.52;;;24.80;64.20;;;;;;5159102;28;20050;-73
2021/06/23 10:58:38;;;;;;;18.35;16.85;;;24.90;62.80;;;;;;5159018;28;20073;-73
2021/06/23 11:01:13;;;;;;;18.48;17.17;;;25.00;63.40;;;;;;5156849;28;20515;-73
2021/06/23 11:03:59;;;;;;;18.15;16.67;;;25.00;60.00;;;;;;5163171;28;20576;-73
2021/06/23 11:06:45;;;;;;;19.23;17.50;;;25.00;62.50;;;;;;5160937;28;20512;-74
2021/06/23 11:09:24;;;;;;;18.05;16.75;;;25.10;61.90;;;;;;5157982;28;20074;-74
2021/06/23 11:11:57;;;;;;;18.33;17.02;;;25.10;62.50;;;;;;5155944;28;20388;-73
2021/06/23 11:14:32;;;;;;;18.30;16.85;;;25.00;62.10;;;;;;5158116;28;20457;-74
2021/06/23 11:17:31;;;;;;;18.38;17.08;;;25.10;61.60;;;;;;5156272;28;20049;-74
2021/06/23 11:20:04;;;;;;;18.00;16.65;;;25.30;62.30;;;;;;5156606;28;20104;-72
2021/06/23 11:22:36;;;;;;;18.67;17.08;;;25.30;61.10;;;;;;5158464;28;20069;-73
2021/06/23 11:25:33;;;;;;;17.85;16.55;;;25.40;60.80;;;;;;5159526;28;20034;-73
2021/06/23 11:28:08;;;;;;;18.70;17.25;;;25.40;61.10;;;;;;5159094;28;20527;-74
2021/06/23 11:30:51;;;;;;;18.38;16.92;;;25.50;59.50;;;;;;5162380;28;20046;-74
2021/06/23 11:33:29;;;;;;;17.88;16.58;;;25.40;59.60;;;;;;5159073;28;20465;-74
2021/06/23 11:36:10;;;;;;;17.95;16.65;;;25.40;60.70;;;;;;5158798;28;20038;-73
2021/06/23 11:38:43;;;;;;;18.83;17.40;;;25.50;60.30;;;;;;5159045;28;20154;-73
2021/06/23 11:41:16;;;;;;;18.13;16.80;;;25.70;57.70;;;;;;5160081;28;20077;-73
2021/06/23 11:43:48;;;;;;;19.13;17.73;;;25.60;59.10;;;;;;5159263;28;20124;-75
2021/06/23 11:46:20;;;;;;;19.80;18.15;;;25.80;59.10;;;;;;5156549;28;20043;-74
2021/06/23 11:48:53;;;;;;;19.45;17.95;;;25.80;56.90;;;;;;5157970;28;20046;-71
2021/06/23 11:51:25;;;;;;;18.80;17.40;;;25.70;58.50;;;;;;5161734;28;20057;-72
2021/06/23 11:53:57;;;;;;;19.10;17.73;;;25.70;58.10;;;;;;5156055;28;20131;-72
2021/06/23 11:56:29;;;;;;;19.40;17.98;;;25.90;58.20;;;;;;5159367;28;20046;-73
2021/06/23 11:59:01;;;;;;;19.30;17.90;;;25.90;58.30;;;;;;5158943;28;20045;-72
2021/06/23 12:01:33;;;;;;;19.05;17.58;;;25.90;58.20;;;;;;5158061;28;20045;-73
2021/06/23 12:04:05;;;;;;;19.00;17.50;;;26.00;59.70;;;;;;5158632;28;20125;-75
2021/06/23 12:06:37;;;;;;;18.88;17.52;;;25.90;58.80;;;;;;5157767;28;20094;-73
2021/06/23 12:09:09;;;;;;;19.42;17.83;;;25.90;58.20;;;;;;5161945;28;20042;-72
2021/06/23 12:11:43;;;;;;;19.85;18.35;;;26.10;59.90;;;;;;5158209;28;20105;-73
2021/06/23 12:14:14;;;;;;;18.85;17.45;;;26.10;59.80;;;;;;5156585;28;20054;-72
2021/06/23 12:16:47;;;;;;;18.95;17.55;;;26.10;59.60;;;;;;5154083;28;20524;-73
2021/06/23 12:19:19;;;;;;;18.88;17.48;;;26.20;59.40;;;;;;5158139;28;20655;-73
2021/06/23 12:21:51;;;;;;;19.10;17.52;;;26.20;58.60;;;;;;5157754;28;20129;-74
2021/06/23 12:24:22;;;;;;;19.13;17.63;;;26.40;57.10;;;;;;5156453;28;20070;-73
2021/06/23 12:26:54;;;;;;;19.13;17.73;;;26.60;59.30;;;;;;5158949;28;20129;-73
2021/06/23 12:29:26;;;;;;;18.83;17.42;;;26.40;57.20;;;;;;5164121;28;20400;-73
2021/06/23 12:32:02;;;;;;;18.42;17.02;;;26.20;56.50;;;;;;5161196;28;20606;-72
2021/06/23 12:34:34;;;;;;;19.13;17.73;;;26.00;57.90;;;;;;5162771;28;20428;-72
2021/06/23 12:37:06;;;;;;;19.77;18.05;;;26.00;58.00;;;;;;5160504;28;20050;-72
2021/06/23 12:39:38;;;;;;;19.20;17.75;;;26.00;57.20;;;;;;5163659;28;20086;-74
2021/06/23 12:42:10;;;;;;;19.05;17.65;;;26.20;57.70;;;;;;5160193;28;20512;-71
2021/06/23 12:44:42;;;;;;;19.40;18.00;;;26.40;57.50;;;;;;5161020;28;20147;-72
2021/06/23 12:47:14;;;;;;;19.73;18.13;;;26.60;57.40;;;;;;5159607;28;20078;-72
2021/06/23 12:49:46;;;;;;;19.88;18.27;;;26.70;56.80;;;;;;5159849;28;20037;-71
2021/06/23 12:52:18;;;;;;;19.17;17.67;;;26.70;57.00;;;;;;5159770;28;20116;-72
2021/06/23 12:54:50;;;;;;;19.10;17.70;;;26.60;57.20;;;;;;5162266;28;20512;-72
2021/06/23 12:57:22;;;;;;;19.45;18.05;;;26.40;56.30;;;;;;5160780;28;20054;-70
2021/06/23 12:59:54;;;;;;;18.85;17.35;;;26.30;57.30;;;;;;5161523;28;20168;-72
2021/06/23 13:02:26;;;;;;;19.23;17.73;;;26.20;57.70;;;;;;5161588;28;20057;-72
2021/06/23 13:04:58;;;;;;;19.15;17.65;;;26.10;56.30;;;;;;5161115;28;20060;-71
2021/06/23 13:07:30;;;;;;;19.13;17.73;;;25.90;57.00;;;;;;5160702;28;20054;-70
2021/06/23 13:10:04;;;;;;;19.10;17.70;;;25.90;57.90;;;;;;5158920;28;20164;-71
2021/06/23 13:12:36;;;;;;;18.88;17.48;;;25.80;59.30;;;;;;5156025;28;20053;-72
2021/06/23 13:15:09;;;;;;;19.30;17.90;;;25.80;58.80;;;;;;5161929;28;20455;-72
2021/06/23 13:17:41;;;;;;;19.58;18.02;;;25.80;59.80;;;;;;5151048;28;20128;-71
2021/06/23 13:20:14;;;;;;;20.00;18.50;;;26.10;59.70;;;;;;5161826;28;20066;-73
2021/06/23 13:22:51;;;;;;;19.90;18.30;;;26.40;59.50;;;;;;5160440;28;20100;-72